Concrete, WA (98237)

5:55 AM PDT on July 06, 2015 (GMT -0700)
RAWS | | Change Station
CLOSE
Current Station
Personal Weather Station
Location: Concrete, WA
Elevation: 2160 ft
Nearby Weather Stations

Elev 2160 ft 48.39 °N, 121.82 °W | Updated 27 minutes ago

Clear
Clear
63.0 °F
Feels Like 63.0 °F
N
2.0
Wind Variable Wind from SE
Gusts 3.0 mph

Today
High -- | Low -- °F
--% Chance of Precip.
Yesterday
High -- | Low -- °F
Precip. -- in
5:12 AM 9:10 PM
Waning Gibbous, 75% visible
Pressure 29.96 in
Visibility 9.0 miles
Clouds Few 3400 ft
Dew Point 47.0 °F
Humidity 56%
Rainfall in
Snow Depth Not available.
UV 0 out of 12
Pollen 6.00 out of 12
Air Quality Not available.
Flu Activity Not available.
METAR KBVS 061235Z AUTO 00000KT 9SM FEW034 14/12 A2996 RMK A01

More Conditions Fewer Conditions

Pressure 29.96 in
Visibility 9.0 miles
Clouds Few 3400 ft
Dew Point 47.0 °F
Humidity 56%
Rainfall in
Snow Depth Not available.
UV 0 out of 12
Pollen 6.00 out of 12
Air Quality Not available.
Flu Activity Not available.
METAR KBVS 061235Z AUTO 00000KT 9SM FEW034 14/12 A2996 RMK A01

More Conditions Fewer Conditions

10-Day Weather Forecast

×

Almanac

Astronomy

Jul. 06, 2015 Rise Set
Actual Time
Civil Twilight
Nautical Twilight
Astronomical Twilight
Moon
Length of Visible Light
Length of Day
Tomorrow will be .
, % of the Moon is Illuminated

Today's Extremes

State Highs State Lows

Community

WunderPhotos

Upload Photos

1,835,548 photos uploaded!

WunderBlogs® & News

Nearby

Air Quality

  Air Quality AQ Index Pollutant
Not available.

Snow Depth

Station Depth Elevation

Earthquake Activity

City Distance Mag. Time & Date
Minimum magnitude displayed is 2.5.

Coastal Water Temperatures

Place Temperature

Stations

Nearby Weather Stations

Station Location Temp. Windchill Dew Point Humidity Wind Precip. Elev Updated Type